createdAt,value
2023-01-03T00:02:09.057Z,16.10
2023-01-03T00:04:37.028Z,16.00
2023-01-03T00:07:04.957Z,16.00
2023-01-03T00:09:32.857Z,15.90
2023-01-03T00:12:18.368Z,16.10
2023-01-03T00:14:48.859Z,16.30
2023-01-03T00:17:17.605Z,16.30
2023-01-03T00:19:46.448Z,16.60
2023-01-03T00:22:17.692Z,16.90
2023-01-03T00:24:46.735Z,16.70
2023-01-03T00:27:15.526Z,16.90
2023-01-03T00:29:43.769Z,16.80
2023-01-03T00:32:13.329Z,17.00
2023-01-03T00:34:43.905Z,16.80
2023-01-03T00:37:11.973Z,16.80
2023-01-03T00:39:40.054Z,16.70
2023-01-03T00:42:08.411Z,16.50
2023-01-03T00:44:36.457Z,16.50
2023-01-03T00:47:04.412Z,16.20
2023-01-03T00:49:33.977Z,16.00
2023-01-03T00:52:01.889Z,16.30
2023-01-03T00:54:29.806Z,16.50
2023-01-03T00:56:57.793Z,16.40
2023-01-03T00:59:27.023Z,16.80
2023-01-03T01:01:57.049Z,16.90
2023-01-03T01:04:28.404Z,17.10
2023-01-03T01:07:00.298Z,17.00
2023-01-03T01:09:31.070Z,16.90
2023-01-03T01:11:59.236Z,17.00
2023-01-03T01:14:28.644Z,17.30
2023-01-03T01:16:58.774Z,17.00
2023-01-03T01:19:28.585Z,17.00
2023-01-03T01:21:58.250Z,17.20
2023-01-03T01:24:26.282Z,17.30
2023-01-03T01:26:54.379Z,17.30
2023-01-03T01:29:22.694Z,17.40
2023-01-03T01:31:50.892Z,17.50
2023-01-03T01:34:19.091Z,17.70
2023-01-03T01:36:47.711Z,18.00
2023-01-03T01:39:19.195Z,17.70
2023-01-03T01:42:06.429Z,17.70
2023-01-03T01:44:49.765Z,17.90
2023-01-03T01:47:24.748Z,17.70
2023-01-03T01:49:56.607Z,17.90
2023-01-03T01:52:25.901Z,17.80
2023-01-03T01:54:56.468Z,17.70
2023-01-03T01:57:26.470Z,17.40
2023-01-03T01:59:54.376Z,17.10
2023-01-03T02:02:24.072Z,17.20
2023-01-03T02:04:54.941Z,17.10
2023-01-03T02:07:24.274Z,16.90
2023-01-03T02:09:58.158Z,16.90
2023-01-03T02:12:54.611Z,17.20
2023-01-03T02:15:35.991Z,17.40
2023-01-03T02:18:18.203Z,17.00
2023-01-03T02:21:29.992Z,16.70
2023-01-03T02:24:49.804Z,17.10
2023-01-03T02:28:07.684Z,17.30
2023-01-03T02:30:40.586Z,17.10
2023-01-03T02:33:26.037Z,17.40
2023-01-03T02:36:01.749Z,17.60
2023-01-03T02:38:45.464Z,17.60
2023-01-03T02:41:23.785Z,17.70
2023-01-03T02:43:55.829Z,17.60
2023-01-03T02:46:30.060Z,17.60
2023-01-03T02:49:03.001Z,17.80
2023-01-03T02:51:38.305Z,17.50
2023-01-03T02:54:11.016Z,17.40
2023-01-03T02:56:43.343Z,17.40
2023-01-03T02:59:15.915Z,17.50
2023-01-03T03:01:51.028Z,17.70
2023-01-03T03:04:19.915Z,17.70
2023-01-03T03:06:55.347Z,17.40
2023-01-03T03:09:23.288Z,17.10
2023-01-03T03:12:11.991Z,17.30
2023-01-03T03:14:43.958Z,17.30
2023-01-03T03:17:18.767Z,17.10
2023-01-03T03:20:06.770Z,17.20
2023-01-03T03:22:56.736Z,16.60
2023-01-03T03:25:28.126Z,16.50
2023-01-03T03:28:18.206Z,16.60
2023-01-03T03:30:49.288Z,16.70
2023-01-03T03:33:21.994Z,17.20
2023-01-03T03:35:55.176Z,17.00
2023-01-03T03:38:29.975Z,16.80
2023-01-03T03:41:23.917Z,16.60
2023-01-03T03:44:24.342Z,16.50
2023-01-03T03:47:04.147Z,16.60
2023-01-03T03:49:40.521Z,16.70
2023-01-03T03:52:14.423Z,16.90
2023-01-03T03:54:47.387Z,17.40
2023-01-03T03:57:19.900Z,17.70
2023-01-03T03:59:53.114Z,18.40
2023-01-03T04:02:23.028Z,18.20
2023-01-03T04:04:58.009Z,18.00
2023-01-03T04:07:26.327Z,17.50
2023-01-03T04:09:54.234Z,17.10
2023-01-03T04:12:22.312Z,17.10
2023-01-03T04:14:50.288Z,17.10
2023-01-03T04:17:18.287Z,17.20
2023-01-03T04:19:46.240Z,17.30
2023-01-03T04:22:15.500Z,17.60
2023-01-03T04:24:43.762Z,17.80
2023-01-03T04:27:11.684Z,18.00
2023-01-03T04:29:39.849Z,17.80
2023-01-03T04:32:08.345Z,18.00
2023-01-03T04:34:36.458Z,18.10
2023-01-03T04:37:04.413Z,18.30
2023-01-03T04:39:33.701Z,18.50
2023-01-03T04:42:01.735Z,18.50
2023-01-03T04:44:28.753Z,18.80
2023-01-03T04:46:56.669Z,18.60
2023-01-03T04:49:24.582Z,18.50
2023-01-03T04:51:52.505Z,18.70
2023-01-03T04:54:20.412Z,18.80
2023-01-03T04:56:49.667Z,19.10
2023-01-03T04:59:17.556Z,18.70
2023-01-03T05:01:52.120Z,18.60
2023-01-03T05:04:20.566Z,18.90
2023-01-03T05:06:48.618Z,19.30
2023-01-03T05:09:16.554Z,19.90
2023-01-03T05:11:44.476Z,19.90
2023-01-03T05:14:14.663Z,20.00
2023-01-03T05:16:42.948Z,19.20
2023-01-03T05:19:11.179Z,19.10
2023-01-03T05:21:57.173Z,18.80
2023-01-03T05:24:51.181Z,19.60
2023-01-03T05:27:19.329Z,19.20
2023-01-03T05:29:51.968Z,19.20
2023-01-03T05:32:20.653Z,19.30
2023-01-03T05:34:48.619Z,19.00
2023-01-03T05:37:16.518Z,19.10
2023-01-03T05:39:44.391Z,19.10
2023-01-03T05:42:12.333Z,19.20
2023-01-03T05:44:41.261Z,19.10
2023-01-03T05:47:10.661Z,19.40
2023-01-03T05:49:38.608Z,19.60
2023-01-03T05:52:06.526Z,19.60
2023-01-03T05:54:34.435Z,19.80
2023-01-03T05:57:02.514Z,20.20
2023-01-03T05:59:30.478Z,19.90
2023-01-03T06:01:58.508Z,20.30
2023-01-03T06:04:27.940Z,20.30
2023-01-03T06:06:55.879Z,20.00
2023-01-03T06:09:23.785Z,19.60
2023-01-03T06:11:51.731Z,19.60
2023-01-03T06:14:20.183Z,19.70
2023-01-03T06:17:05.492Z,19.90
2023-01-03T06:19:34.826Z,19.80
2023-01-03T06:22:08.686Z,19.80
2023-01-03T06:24:43.129Z,19.90
2023-01-03T06:27:11.126Z,19.30
2023-01-03T06:29:39.371Z,19.60
2023-01-03T06:32:09.678Z,19.30
2023-01-03T06:34:39.855Z,19.00
2023-01-03T06:37:08.136Z,18.80
2023-01-03T06:39:36.146Z,18.60
2023-01-03T06:42:24.254Z,18.00
2023-01-03T06:45:06.170Z,17.70
2023-01-03T06:47:51.581Z,17.30
2023-01-03T06:50:38.600Z,17.30
2023-01-03T06:53:15.433Z,17.20
2023-01-03T06:55:44.901Z,17.60
2023-01-03T06:58:13.052Z,18.20
2023-01-03T07:00:43.144Z,18.10
2023-01-03T07:03:11.613Z,17.80
2023-01-03T07:05:41.785Z,18.20
2023-01-03T07:08:09.682Z,18.10
2023-01-03T07:10:37.585Z,18.00
2023-01-03T07:13:22.946Z,17.70
2023-01-03T07:15:53.208Z,17.60
2023-01-03T07:18:22.053Z,17.00
2023-01-03T07:20:51.325Z,16.90
2023-01-03T07:23:19.285Z,16.70
2023-01-03T07:25:47.712Z,16.90
2023-01-03T07:28:16.973Z,16.80
2023-01-03T07:30:46.653Z,16.70
2023-01-03T07:33:16.839Z,16.30
2023-01-03T07:35:45.327Z,16.20
2023-01-03T07:38:14.861Z,16.30
2023-01-03T07:40:42.759Z,16.20
2023-01-03T07:43:29.919Z,16.40
2023-01-03T07:45:58.298Z,16.20
2023-01-03T07:48:26.309Z,16.00
2023-01-03T07:50:58.734Z,16.00
2023-01-03T07:53:28.717Z,16.20
2023-01-03T07:56:07.720Z,16.00
2023-01-03T07:58:39.068Z,15.90
2023-01-03T08:01:08.410Z,15.90
2023-01-03T08:03:37.131Z,16.10
2023-01-03T08:06:10.091Z,16.00
2023-01-03T08:08:39.387Z,16.20
2023-01-03T08:11:29.834Z,16.20
2023-01-03T08:13:57.748Z,16.80
2023-01-03T08:16:25.707Z,16.70
2023-01-03T08:18:53.713Z,16.60
2023-01-03T08:21:21.693Z,16.50
2023-01-03T08:23:50.934Z,15.90
2023-01-03T08:26:19.151Z,16.00
2023-01-03T08:28:48.076Z,16.10
2023-01-03T08:31:19.021Z,16.20
2023-01-03T08:33:51.279Z,16.40
2023-01-03T08:36:20.413Z,16.70
2023-01-03T08:38:53.024Z,16.90
2023-01-03T08:41:25.215Z,16.90
2023-01-03T08:43:54.324Z,16.80
2023-01-03T08:46:23.155Z,17.00
2023-01-03T08:48:51.242Z,17.10
2023-01-03T08:51:20.176Z,17.00
2023-01-03T08:53:48.098Z,17.70
2023-01-03T08:56:19.248Z,17.70
2023-01-03T08:58:49.929Z,17.80
2023-01-03T09:01:20.500Z,17.60
2023-01-03T09:03:48.605Z,17.10
2023-01-03T09:06:16.708Z,16.90
2023-01-03T09:08:44.661Z,17.20
2023-01-03T09:11:12.749Z,18.00
2023-01-03T09:13:44.781Z,17.70
2023-01-03T09:16:16.404Z,17.50
2023-01-03T09:18:44.501Z,17.20
2023-01-03T09:21:12.496Z,17.50
2023-01-03T09:23:40.431Z,17.40
2023-01-03T09:26:08.816Z,17.70
2023-01-03T09:28:36.754Z,17.60
2023-01-03T09:31:06.601Z,18.10
2023-01-03T09:33:34.641Z,18.40
2023-01-03T09:36:02.579Z,18.70
2023-01-03T09:38:30.574Z,18.80
2023-01-03T09:41:00.963Z,19.50
2023-01-03T09:43:37.317Z,19.60
2023-01-03T09:46:08.742Z,20.00
2023-01-03T09:48:39.587Z,20.10
2023-01-03T09:51:30.422Z,20.40
2023-01-03T09:54:13.337Z,19.90
2023-01-03T09:56:58.895Z,19.70
2023-01-03T09:59:44.353Z,19.10
2023-01-03T10:02:54.385Z,18.80
2023-01-03T10:05:35.048Z,18.50
2023-01-03T10:08:15.828Z,18.60
2023-01-03T10:10:53.419Z,18.90
2023-01-03T10:13:32.498Z,19.00
2023-01-03T10:16:07.622Z,18.70
2023-01-03T10:18:51.124Z,18.80
2023-01-03T10:21:25.512Z,18.60
2023-01-03T10:23:55.849Z,18.70
2023-01-03T10:26:32.649Z,19.00
2023-01-03T10:29:01.838Z,19.30
2023-01-03T10:31:44.236Z,19.60
2023-01-03T10:34:14.903Z,20.10
2023-01-03T10:36:42.825Z,20.50
2023-01-03T10:39:11.946Z,21.00
2023-01-03T10:41:44.603Z,20.60
2023-01-03T10:44:25.454Z,20.50
2023-01-03T10:46:55.397Z,20.60
2023-01-03T10:49:29.403Z,20.10
2023-01-03T10:52:02.004Z,19.70
2023-01-03T10:54:36.014Z,19.40
2023-01-03T10:57:06.762Z,19.20
2023-01-03T10:59:35.569Z,19.10
2023-01-03T11:02:17.448Z,19.30
2023-01-03T11:04:46.970Z,19.40
2023-01-03T11:07:16.790Z,19.30
2023-01-03T11:09:51.315Z,19.60
2023-01-03T11:12:29.112Z,19.30
2023-01-03T11:15:00.935Z,18.90
2023-01-03T11:17:30.384Z,18.90
2023-01-03T11:19:59.786Z,19.70
2023-01-03T11:22:38.538Z,19.60
2023-01-03T11:25:39.142Z,19.40
2023-01-03T11:28:51.416Z,19.10
2023-01-03T11:31:35.143Z,19.30
2023-01-03T11:34:16.923Z,20.00
2023-01-03T11:36:53.137Z,20.20
2023-01-03T11:39:33.276Z,20.50
2023-01-03T11:42:21.657Z,20.80
2023-01-03T11:45:08.743Z,20.90
2023-01-03T11:47:46.076Z,20.90
2023-01-03T11:50:26.725Z,20.90
2023-01-03T11:53:01.640Z,20.40
2023-01-03T11:55:59.939Z,20.30
2023-01-03T11:58:57.494Z,20.30
2023-01-03T12:01:39.794Z,19.60
2023-01-03T12:04:24.023Z,19.70
2023-01-03T12:07:45.306Z,19.30
2023-01-03T12:10:02.952Z,19.30
2023-01-03T12:12:54.935Z,19.40
2023-01-03T12:15:25.907Z,19.30
2023-01-03T12:17:59.583Z,19.80
2023-01-03T12:20:32.323Z,20.10
2023-01-03T12:23:04.176Z,20.80
2023-01-03T12:25:37.189Z,20.70
2023-01-03T12:28:12.274Z,20.80
2023-01-03T12:30:46.708Z,20.40
2023-01-03T12:33:25.033Z,20.10
2023-01-03T12:35:58.608Z,20.30
2023-01-03T12:38:31.688Z,19.90
2023-01-03T12:41:07.810Z,19.80
2023-01-03T12:43:42.805Z,19.90
2023-01-03T12:46:14.982Z,20.10
2023-01-03T12:48:57.514Z,20.30
2023-01-03T12:51:26.718Z,20.90
2023-01-03T12:54:13.519Z,21.00
2023-01-03T12:57:10.632Z,21.00
2023-01-03T13:00:00.771Z,20.60
2023-01-03T13:02:42.452Z,20.60
2023-01-03T13:05:19.948Z,19.90
2023-01-03T13:07:54.083Z,19.80
2023-01-03T13:10:26.316Z,19.70
2023-01-03T13:12:55.956Z,19.60
2023-01-03T13:15:35.805Z,19.60
2023-01-03T13:18:33.183Z,20.10
2023-01-03T13:21:01.309Z,20.10
2023-01-03T13:23:35.727Z,19.90
2023-01-03T13:26:22.097Z,20.30
2023-01-03T13:28:52.271Z,20.20
2023-01-03T13:31:39.801Z,20.10
2023-01-03T13:34:35.820Z,20.30
2023-01-03T13:37:23.677Z,19.50
2023-01-03T13:40:45.213Z,19.20
2023-01-03T13:43:23.090Z,19.50
2023-01-03T13:45:55.349Z,19.10
2023-01-03T13:48:30.361Z,19.60
2023-01-03T13:51:34.628Z,19.60
2023-01-03T13:54:05.611Z,19.90
2023-01-03T13:56:58.142Z,20.60
2023-01-03T13:59:34.268Z,21.00
2023-01-03T14:02:50.353Z,21.30
2023-01-03T14:05:32.436Z,21.60
2023-01-03T14:08:16.611Z,21.80
2023-01-03T14:11:14.922Z,22.00
2023-01-03T14:13:46.546Z,21.90
2023-01-03T14:16:29.546Z,21.80
2023-01-03T14:19:04.566Z,21.80
2023-01-03T14:21:43.015Z,22.10
2023-01-03T14:24:19.781Z,21.90
2023-01-03T14:26:47.778Z,21.80
2023-01-03T14:29:20.794Z,21.70
2023-01-03T14:31:53.366Z,21.80
2023-01-03T14:34:34.963Z,21.40
2023-01-03T14:37:11.374Z,21.30
2023-01-03T14:39:45.901Z,21.60
2023-01-03T14:42:17.395Z,20.90
2023-01-03T14:44:51.080Z,20.90
2023-01-03T14:47:19.893Z,21.60
2023-01-03T14:49:53.641Z,21.60
2023-01-03T14:52:29.664Z,21.30
2023-01-03T14:55:03.944Z,21.40
2023-01-03T14:57:33.070Z,22.00
2023-01-03T15:00:02.030Z,21.80
2023-01-03T15:02:35.265Z,22.20
2023-01-03T15:05:14.974Z,22.40
2023-01-03T15:07:43.680Z,22.20
2023-01-03T15:10:19.611Z,21.80
2023-01-03T15:12:50.601Z,21.70
2023-01-03T15:15:24.933Z,21.60
2023-01-03T15:17:56.998Z,21.50
2023-01-03T15:20:35.026Z,21.40
2023-01-03T15:23:03.622Z,20.90
2023-01-03T15:25:38.805Z,20.90
2023-01-03T15:28:15.325Z,20.80
2023-01-03T15:30:49.317Z,21.10
2023-01-03T15:33:24.757Z,20.90
2023-01-03T15:35:55.701Z,21.40
2023-01-03T15:38:31.552Z,21.70
2023-01-03T15:41:04.926Z,21.90
2023-01-03T15:43:37.803Z,21.00
2023-01-03T15:46:14.797Z,20.80
2023-01-03T15:48:44.775Z,20.60
2023-01-03T15:51:13.997Z,20.30
2023-01-03T15:53:44.491Z,20.10
2023-01-03T15:56:18.702Z,19.80
2023-01-03T15:58:51.434Z,19.60
2023-01-03T16:01:24.228Z,19.50
2023-01-03T16:03:53.925Z,19.10
2023-01-03T16:06:25.362Z,19.30
2023-01-03T16:08:53.341Z,19.20
2023-01-03T16:11:29.673Z,19.60
2023-01-03T16:14:04.053Z,20.00
2023-01-03T16:16:36.014Z,20.00
2023-01-03T16:19:05.580Z,20.80
2023-01-03T16:21:38.374Z,21.30
2023-01-03T16:24:09.004Z,21.50
2023-01-03T16:26:36.885Z,21.80
2023-01-03T16:29:04.783Z,22.10
2023-01-03T16:31:34.481Z,21.90
2023-01-03T16:34:04.929Z,22.10
2023-01-03T16:36:37.306Z,22.20
2023-01-03T16:39:06.490Z,22.30
2023-01-03T16:41:34.455Z,22.00
2023-01-03T16:44:02.379Z,21.90
2023-01-03T16:46:30.642Z,21.40
2023-01-03T16:49:00.119Z,21.10
2023-01-03T16:51:31.195Z,20.90
2023-01-03T16:54:03.570Z,21.10
2023-01-03T16:56:31.440Z,20.90
2023-01-03T16:58:59.359Z,20.80
2023-01-03T17:01:29.450Z,20.80
2023-01-03T17:03:57.525Z,21.00
2023-01-03T17:06:37.042Z,21.20
2023-01-03T17:09:12.981Z,21.20
2023-01-03T17:11:41.001Z,20.80
2023-01-03T17:14:16.299Z,20.90
2023-01-03T17:16:45.915Z,20.60
2023-01-03T17:20:01.150Z,19.80
2023-01-03T17:22:07.998Z,20.10
2023-01-03T17:24:37.243Z,19.90
2023-01-03T17:27:05.422Z,19.50
2023-01-03T17:29:33.553Z,19.60
2023-01-03T17:32:01.841Z,19.40
2023-01-03T17:34:32.219Z,19.30
2023-01-03T17:37:01.519Z,19.40
2023-01-03T17:39:29.772Z,19.50
2023-01-03T17:42:15.998Z,19.40
2023-01-03T17:45:05.740Z,19.70
2023-01-03T17:47:52.110Z,19.30
2023-01-03T17:50:20.066Z,18.90
2023-01-03T17:52:53.674Z,18.80
2023-01-03T17:55:25.241Z,18.60
2023-01-03T17:57:55.073Z,18.30
2023-01-03T18:00:25.770Z,18.30
2023-01-03T18:02:55.556Z,18.60
2023-01-03T18:05:28.519Z,19.10
2023-01-03T18:07:58.069Z,19.50
2023-01-03T18:10:31.993Z,19.90
2023-01-03T18:13:01.374Z,20.00
2023-01-03T18:15:29.934Z,20.10
2023-01-03T18:17:57.901Z,19.90
2023-01-03T18:20:26.717Z,20.20
2023-01-03T18:22:54.999Z,20.20
2023-01-03T18:25:25.123Z,20.20
2023-01-03T18:27:57.373Z,20.40
2023-01-03T18:30:27.356Z,20.40
2023-01-03T18:32:55.336Z,20.60
2023-01-03T18:35:34.071Z,20.60
2023-01-03T18:38:05.850Z,20.20
2023-01-03T18:40:33.890Z,19.90
2023-01-03T18:43:10.935Z,19.80
2023-01-03T18:45:42.421Z,19.60
2023-01-03T18:48:14.668Z,19.80
2023-01-03T18:50:43.279Z,20.10
2023-01-03T18:53:16.460Z,19.40
2023-01-03T18:55:44.407Z,18.50
2023-01-03T18:58:31.575Z,18.70
2023-01-03T19:01:00.945Z,18.00
2023-01-03T19:03:30.533Z,17.90
2023-01-03T19:05:59.953Z,18.20
2023-01-03T19:08:32.398Z,18.60
2023-01-03T19:11:05.453Z,19.10
2023-01-03T19:13:50.082Z,19.60
2023-01-03T19:16:21.941Z,19.80
2023-01-03T19:18:50.576Z,20.30
2023-01-03T19:21:20.258Z,20.70
2023-01-03T19:23:54.917Z,21.10
2023-01-03T19:26:30.631Z,20.80
2023-01-03T19:29:01.152Z,20.50
2023-01-03T19:31:42.474Z,20.90
2023-01-03T19:34:16.478Z,20.80
2023-01-03T19:36:45.001Z,20.90
2023-01-03T19:39:13.663Z,21.00
2023-01-03T19:42:06.109Z,21.10
2023-01-03T19:44:36.372Z,21.20
2023-01-03T19:47:07.118Z,21.10
2023-01-03T19:49:35.034Z,21.10
2023-01-03T19:52:03.174Z,21.20
2023-01-03T19:54:31.069Z,21.40
2023-01-03T19:57:01.911Z,21.00
2023-01-03T19:59:34.297Z,20.20
2023-01-03T20:02:24.486Z,20.00
2023-01-03T20:04:53.262Z,19.60
2023-01-03T20:07:21.285Z,20.10
2023-01-03T20:09:49.223Z,20.70
2023-01-03T20:12:22.461Z,20.90
2023-01-03T20:14:53.100Z,21.10
2023-01-03T20:17:24.150Z,21.40
2023-01-03T20:19:54.956Z,21.50
2023-01-03T20:23:02.594Z,21.60
2023-01-03T20:25:26.165Z,21.50
2023-01-03T20:27:55.461Z,21.60
2023-01-03T20:30:25.085Z,21.60
2023-01-03T20:32:54.712Z,21.70
2023-01-03T20:38:16.760Z,21.70
2023-01-03T20:40:44.795Z,21.60
2023-01-03T20:43:15.340Z,21.50
2023-01-03T20:45:43.313Z,21.10
2023-01-03T20:48:20.879Z,21.10
2023-01-03T20:50:55.100Z,20.90
2023-01-03T20:53:25.452Z,21.20
2023-01-03T20:55:54.127Z,21.30
2023-01-03T20:58:24.935Z,21.10
2023-01-03T21:01:01.654Z,21.10
2023-01-03T21:03:34.419Z,21.20
2023-01-03T21:06:03.304Z,21.30
2023-01-03T21:08:49.106Z,21.20
2023-01-03T21:11:17.048Z,20.70
2023-01-03T21:13:46.013Z,20.60
2023-01-03T21:16:24.581Z,20.70
2023-01-03T21:18:53.992Z,20.70
2023-01-03T21:21:23.663Z,20.00
2023-01-03T21:23:51.656Z,20.10
2023-01-03T21:26:20.185Z,20.40
2023-01-03T21:28:48.616Z,19.80
2023-01-03T21:31:19.330Z,19.90
2023-01-03T21:33:49.731Z,19.70
2023-01-03T21:36:25.713Z,19.60
2023-01-03T21:38:58.376Z,19.60
2023-01-03T21:41:27.868Z,19.40
2023-01-03T21:43:56.667Z,19.40
2023-01-03T21:46:25.075Z,19.30
2023-01-03T21:48:53.310Z,19.20
2023-01-03T21:51:34.989Z,18.90
2023-01-03T21:54:10.260Z,18.80
2023-01-03T21:56:45.168Z,18.60
2023-01-03T21:59:16.248Z,18.80
2023-01-03T22:02:02.614Z,19.10
2023-01-03T22:04:31.116Z,18.80
2023-01-03T22:07:01.916Z,18.50
2023-01-03T22:09:48.649Z,18.70
2023-01-03T22:12:17.250Z,18.80
2023-01-03T22:14:45.306Z,18.40
2023-01-03T22:17:13.299Z,18.70
2023-01-03T22:19:41.325Z,18.90
2023-01-03T22:22:10.591Z,18.80
2023-01-03T22:24:38.520Z,18.70
2023-01-03T22:27:08.037Z,18.70
2023-01-03T22:29:36.068Z,18.80
2023-01-03T22:32:04.188Z,19.10
2023-01-03T22:34:32.121Z,19.00
2023-01-03T22:37:00.098Z,18.90
2023-01-03T22:39:29.329Z,18.80
2023-01-03T22:41:57.901Z,18.90
2023-01-03T22:44:25.783Z,18.90
2023-01-03T22:46:53.722Z,19.00
2023-01-03T22:49:21.629Z,19.00
2023-01-03T22:51:49.581Z,19.10
2023-01-03T22:54:17.606Z,19.10
2023-01-03T22:56:47.113Z,19.00
2023-01-03T22:59:15.917Z,19.00
2023-01-03T23:01:44.097Z,19.00
2023-01-03T23:04:13.067Z,19.00
2023-01-03T23:06:41.194Z,18.90
2023-01-03T23:09:09.119Z,18.90
2023-01-03T23:11:54.386Z,18.80
2023-01-03T23:14:24.865Z,19.00
2023-01-03T23:16:55.690Z,18.70
2023-01-03T23:19:28.186Z,18.90
2023-01-03T23:21:58.248Z,18.70
2023-01-03T23:24:26.201Z,18.20
2023-01-03T23:26:54.611Z,18.00
2023-01-03T23:29:24.064Z,17.90
2023-01-03T23:31:52.699Z,17.90
2023-01-03T23:34:20.948Z,17.90
2023-01-03T23:36:49.289Z,18.20
2023-01-03T23:39:18.915Z,18.70
2023-01-03T23:41:47.529Z,18.80
2023-01-03T23:44:16.841Z,18.90
2023-01-03T23:46:46.109Z,19.00
2023-01-03T23:49:16.192Z,18.90
2023-01-03T23:51:44.232Z,18.00
2023-01-03T23:54:12.353Z,17.80
2023-01-03T23:56:40.326Z,18.10
2023-01-03T23:59:08.290Z,18.30
